Time;durP1;ratioP1;P1;durP2;ratioP2;P2;SDS_P1;SDS_P2;PMS_P1;PMS_P2;Temp;Humidity;BMP_temperature;BMP_pressure;BME280_temperature;BME280_humidity;BME280_pressure;Samples;Min_cycle;Max_cycle;Signal;HPM_P1;HPM_P2
2022/02/28 00:01:51;;;;;;;1.50;1.30;;;;;;;0.27;70.57;100672.00;8371644;28;20056;-72
2022/02/28 00:05:53;;;;;;;3.50;1.83;;;;;;;0.19;70.27;100668.16;8363427;28;20471;-72
2022/02/28 00:09:55;;;;;;;3.80;1.97;;;;;;;0.13;69.32;100671.22;8373385;28;20055;-72
2022/02/28 00:13:56;;;;;;;3.70;1.60;;;;;;;0.05;68.79;100661.38;8373738;28;20408;-71
2022/02/28 00:17:57;;;;;;;2.87;1.57;;;;;;;0.02;68.95;100668.84;8369823;28;20060;-71
2022/02/28 00:21:59;;;;;;;2.73;1.60;;;;;;;0.02;68.74;100661.19;8371678;28;20514;-71
2022/02/28 00:26:01;;;;;;;3.13;1.53;;;;;;;0.00;69.04;100658.56;8378278;28;20105;-71
2022/02/28 00:30:06;;;;;;;1.92;1.73;;;;;;;0.04;68.65;100652.84;8371141;28;20052;-72
2022/02/28 00:34:08;;;;;;;3.00;1.70;;;;;;;0.06;68.77;100660.56;8720120;22;20045;-71
2022/02/28 00:38:10;;;;;;;3.43;1.40;;;;;;;0.13;68.89;100662.69;8353444;28;20058;-71
2022/02/28 00:42:12;;;;;;;2.17;1.02;;;;;;;0.09;68.67;100665.84;8358452;28;20115;-71
2022/02/28 00:46:14;;;;;;;1.85;1.67;;;;;;;0.09;69.09;100663.31;8356746;28;20151;-71
2022/02/28 00:50:15;;;;;;;1.98;1.77;;;;;;;0.09;69.50;100671.84;8351302;28;20150;-71
2022/02/28 00:54:17;;;;;;;2.33;1.57;;;;;;;0.04;69.65;100677.47;8362826;28;20183;-71
2022/02/28 00:58:18;;;;;;;3.17;1.50;;;;;;;-0.03;69.47;100668.56;8364766;28;20049;-71
2022/02/28 01:02:20;;;;;;;2.83;1.67;;;;;;;-0.11;69.83;100662.16;8359155;28;20071;-71
2022/02/28 01:06:22;;;;;;;3.47;1.70;;;;;;;-0.13;70.05;100666.28;8362565;28;20052;-71
2022/02/28 01:10:24;;;;;;;5.63;1.58;;;;;;;-0.18;70.94;100665.13;8350028;28;20052;-71
2022/02/28 01:14:26;;;;;;;3.60;1.20;;;;;;;-0.33;72.08;100666.00;8358490;28;20158;-71
2022/02/28 01:18:27;;;;;;;2.33;1.50;;;;;;;-0.34;72.62;100668.47;8348251;28;20049;-71
2022/02/28 01:22:28;;;;;;;3.23;1.80;;;;;;;-0.37;72.32;100664.03;8347731;28;20048;-71
2022/02/28 01:26:30;;;;;;;2.73;1.27;;;;;;;-0.39;71.74;100651.97;8362390;28;20552;-71
2022/02/28 01:30:31;;;;;;;3.13;1.43;;;;;;;-0.45;72.67;100649.06;8360510;28;20365;-71
2022/02/28 01:34:33;;;;;;;2.27;1.70;;;;;;;-0.57;72.39;100638.13;8343372;28;20064;-71
2022/02/28 01:38:35;;;;;;;4.43;1.63;;;;;;;-0.60;72.84;100633.72;8362044;28;20086;-71
2022/02/28 01:42:36;;;;;;;2.60;1.30;;;;;;;-0.61;72.49;100637.06;8362187;28;20358;-72
2022/02/28 01:46:39;;;;;;;1.43;1.33;;;;;;;-0.62;73.28;100635.31;8346040;28;20082;-71
2022/02/28 01:50:40;;;;;;;2.60;1.42;;;;;;;-0.72;72.85;100632.97;8349373;28;20048;-71
2022/02/28 01:54:45;;;;;;;2.00;1.50;;;;;;;-0.85;73.30;100639.03;8365218;28;20159;-71
2022/02/28 01:58:47;;;;;;;1.63;1.47;;;;;;;-0.90;73.75;100642.94;8373972;28;20087;-72
2022/02/28 02:02:49;;;;;;;1.83;1.67;;;;;;;-0.91;74.80;100641.19;8367796;28;20657;-71
2022/02/28 02:06:52;;;;;;;3.80;1.85;;;;;;;-0.95;75.06;100642.69;8373727;28;21161;-71
2022/02/28 02:10:54;;;;;;;2.90;1.90;;;;;;;-1.02;75.18;100648.19;8368972;28;20136;-72
2022/02/28 02:14:55;;;;;;;2.60;1.60;;;;;;;-1.05;75.91;100648.00;8365472;28;20191;-71
2022/02/28 02:18:57;;;;;;;2.10;1.50;;;;;;;-1.14;76.84;100647.44;8368204;28;20052;-71
2022/02/28 02:23:02;;;;;;;1.63;1.00;;;;;;;-1.16;76.72;100654.09;8352085;28;20048;-72
2022/02/28 02:27:04;;;;;;;1.80;1.50;;;;;;;-1.21;77.53;100650.41;8376505;28;20067;-72
2022/02/28 02:31:06;;;;;;;3.93;1.90;;;;;;;-1.18;76.88;100644.59;8379695;28;20431;-71
2022/02/28 02:35:08;;;;;;;1.80;1.67;;;;;;;-1.18;76.81;100632.75;8367752;28;20115;-71
2022/02/28 02:39:10;;;;;;;3.72;1.52;;;;;;;-1.20;76.21;100631.78;8367602;28;20257;-72
2022/02/28 02:43:11;;;;;;;2.40;1.47;;;;;;;-1.23;76.72;100631.59;8370858;28;20083;-71
2022/02/28 02:47:13;;;;;;;2.90;1.50;;;;;;;-1.34;76.56;100630.91;8364262;28;20067;-71
2022/02/28 02:51:17;;;;;;;2.40;1.83;;;;;;;-1.35;76.75;100633.34;8362850;28;20062;-71
2022/02/28 02:55:18;;;;;;;2.07;1.50;;;;;;;-1.37;76.57;100627.28;8378816;28;20081;-71
2022/02/28 02:59:20;;;;;;;2.20;1.60;;;;;;;-1.44;76.31;100628.56;8355197;28;20580;-71
2022/02/28 03:03:22;;;;;;;2.10;1.43;;;;;;;-1.45;77.48;100629.34;8367097;28;20063;-72
2022/02/28 03:07:24;;;;;;;1.80;1.50;;;;;;;-1.42;76.33;100631.22;8376699;28;20444;-71
2022/02/28 03:11:26;;;;;;;4.30;1.63;;;;;;;-1.42;77.43;100629.56;8352915;28;20048;-71
2022/02/28 03:15:27;;;;;;;2.47;1.80;;;;;;;-1.38;77.14;100625.53;8364991;28;20076;-71
2022/02/28 03:19:29;;;;;;;2.37;1.60;;;;;;;-1.36;76.84;100629.94;8372941;28;20135;-71
2022/02/28 03:23:34;;;;;;;2.10;1.63;;;;;;;-1.39;76.57;100621.22;8375038;28;20206;-71
2022/02/28 03:27:36;;;;;;;4.53;2.00;;;;;;;-1.48;76.62;100618.97;8374856;28;20445;-73
2022/02/28 03:31:38;;;;;;;3.67;1.90;;;;;;;-1.58;77.13;100632.78;8366108;28;20149;-73
2022/02/28 03:35:39;;;;;;;2.60;1.60;;;;;;;-1.66;77.63;100639.03;8369690;28;20603;-73
2022/02/28 03:39:41;;;;;;;1.97;1.77;;;;;;;-1.64;78.37;100631.50;8374132;28;20144;-71
2022/02/28 03:43:42;;;;;;;1.90;1.40;;;;;;;-1.70;78.67;100632.00;8364875;28;20099;-73
2022/02/28 03:47:45;;;;;;;2.87;1.77;;;;;;;-1.74;77.98;100627.50;8355760;28;20164;-73
2022/02/28 03:51:46;;;;;;;2.35;1.80;;;;;;;-1.83;77.92;100630.31;8369768;28;20062;-73
2022/02/28 03:55:48;;;;;;;3.30;1.87;;;;;;;-1.83;78.14;100634.53;8373097;28;20053;-73
2022/02/28 03:59:49;;;;;;;3.03;1.60;;;;;;;-1.88;77.19;100635.91;8372178;28;20325;-73
2022/02/28 04:03:52;;;;;;;6.32;2.00;;;;;;;-1.94;76.85;100620.25;8366842;28;20152;-73
2022/02/28 04:07:54;;;;;;;2.17;1.60;;;;;;;-1.91;76.85;100623.00;8368419;28;20462;-73
2022/02/28 04:11:55;;;;;;;2.03;1.58;;;;;;;-1.88;76.58;100630.81;8357635;28;20127;-73
2022/02/28 04:15:57;;;;;;;3.93;1.80;;;;;;;-1.84;76.27;100633.66;8347596;28;20061;-73
2022/02/28 04:19:59;;;;;;;4.13;2.03;;;;;;;-1.84;76.60;100626.03;8351030;28;20056;-73
2022/02/28 04:24:01;;;;;;;2.40;1.65;;;;;;;-1.84;76.40;100620.94;8371399;28;20124;-73
2022/02/28 04:28:02;;;;;;;3.30;1.60;;;;;;;-1.87;76.27;100617.31;8366087;28;20431;-73
2022/02/28 04:32:04;;;;;;;3.03;1.63;;;;;;;-1.88;76.44;100608.78;8362987;28;20136;-73
2022/02/28 04:36:06;;;;;;;2.47;1.10;;;;;;;-1.84;76.33;100612.41;8351589;28;20132;-73
2022/02/28 04:40:08;;;;;;;4.33;1.93;;;;;;;-1.75;76.07;100613.03;8362565;28;20574;-73
2022/02/28 04:44:10;;;;;;;3.42;1.80;;;;;;;-1.68;76.51;100615.16;8363182;28;20144;-73
2022/02/28 04:48:12;;;;;;;3.30;1.93;;;;;;;-1.56;76.47;100615.06;8364351;28;20551;-73
2022/02/28 04:52:14;;;;;;;4.63;1.92;;;;;;;-1.45;75.49;100618.28;8365878;28;20152;-71
2022/02/28 04:56:15;;;;;;;4.63;1.83;;;;;;;-1.34;76.03;100610.53;8365396;28;20063;-72
2022/02/28 05:00:17;;;;;;;4.53;2.17;;;;;;;-1.24;75.49;100606.91;8362627;28;20076;-73
2022/02/28 05:04:18;;;;;;;2.37;2.10;;;;;;;-1.15;75.07;100604.00;8372493;28;20064;-73
2022/02/28 05:08:20;;;;;;;2.13;1.70;;;;;;;-1.08;74.20;100596.81;8365796;28;20071;-73
2022/02/28 05:12:23;;;;;;;4.57;2.17;;;;;;;-1.02;74.61;100599.78;8365361;28;20077;-73
2022/02/28 05:16:24;;;;;;;3.47;1.87;;;;;;;-0.99;74.09;100602.50;8336322;28;20067;-73
2022/02/28 05:20:26;;;;;;;2.13;1.60;;;;;;;-0.95;74.26;100612.09;8350312;28;20289;-73
2022/02/28 05:24:27;;;;;;;4.90;1.95;;;;;;;-0.92;73.11;100612.25;8350172;28;20055;-73
2022/02/28 05:28:29;;;;;;;2.40;2.07;;;;;;;-0.87;73.43;100609.13;8366198;28;20057;-73
2022/02/28 05:32:32;;;;;;;3.10;1.50;;;;;;;-0.88;72.94;100608.25;8370564;28;20152;-73
2022/02/28 05:36:34;;;;;;;2.20;1.70;;;;;;;-0.87;73.25;100620.22;8368182;28;20057;-73
2022/02/28 05:40:36;;;;;;;2.43;1.90;;;;;;;-0.97;72.21;100611.13;8356970;28;20052;-72
2022/02/28 05:44:40;;;;;;;2.67;2.20;;;;;;;-1.07;72.70;100616.47;8371789;28;20053;-72
2022/02/28 05:48:42;;;;;;;3.43;2.07;;;;;;;-1.09;73.09;100610.34;8362981;28;20064;-72
2022/02/28 05:52:45;;;;;;;3.23;2.10;;;;;;;-1.09;72.86;100618.00;8370180;28;20074;-72
2022/02/28 05:56:47;;;;;;;2.90;2.50;;;;;;;-1.08;72.78;100618.88;8371592;28;20303;-72
2022/02/28 06:00:48;;;;;;;2.50;2.17;;;;;;;-1.09;73.24;100618.00;8366912;28;20147;-73
2022/02/28 06:04:50;;;;;;;3.47;2.33;;;;;;;-1.08;72.58;100624.84;8373251;28;20056;-72
2022/02/28 06:08:51;;;;;;;3.80;2.70;;;;;;;-1.08;72.40;100614.66;8354538;28;20064;-72
2022/02/28 06:12:53;;;;;;;3.07;2.30;;;;;;;-1.11;72.79;100631.44;8377787;28;20512;-72
2022/02/28 06:17:05;;;;;;;2.50;1.80;;;;;;;-1.05;73.60;100626.75;8362431;28;20091;-73
2022/02/28 06:21:06;;;;;;;4.77;2.10;;;;;;;-0.97;73.35;100633.19;8365752;28;20052;-72
2022/02/28 06:25:08;;;;;;;3.33;2.50;;;;;;;-0.89;72.92;100637.09;8361716;28;20069;-72
2022/02/28 06:29:10;;;;;;;9.95;4.18;;;;;;;-0.85;72.91;100638.16;8353228;28;20420;-73
2022/02/28 06:33:11;;;;;;;14.30;4.60;;;;;;;-0.77;73.15;100636.94;8352611;28;20079;-72
2022/02/28 06:37:13;;;;;;;8.80;2.77;;;;;;;-0.71;72.42;100629.69;8351254;28;20059;-73
2022/02/28 06:41:15;;;;;;;3.20;2.05;;;;;;;-0.59;71.88;100634.63;8370638;28;20049;-73
2022/02/28 06:45:17;;;;;;;4.83;2.70;;;;;;;-0.50;71.94;100632.63;8349279;28;20131;-72
2022/02/28 06:49:18;;;;;;;3.63;2.45;;;;;;;-0.41;71.67;100645.91;8361281;28;20052;-73
2022/02/28 06:53:22;;;;;;;4.20;2.73;;;;;;;-0.32;70.69;100652.44;8362513;28;20045;-72
2022/02/28 06:57:24;;;;;;;5.23;2.67;;;;;;;-0.20;70.55;100659.03;8348641;28;20059;-72
2022/02/28 07:01:26;;;;;;;3.13;2.40;;;;;;;-0.10;70.50;100651.16;8344172;28;20077;-72
2022/02/28 07:05:28;;;;;;;2.95;2.33;;;;;;;0.00;70.13;100656.00;8346181;28;20735;-70
2022/02/28 07:09:29;;;;;;;4.45;2.35;;;;;;;0.11;70.09;100648.94;8346812;28;20140;-70
2022/02/28 07:13:32;;;;;;;2.40;2.20;;;;;;;0.22;69.21;100650.44;8345960;28;20045;-71
2022/02/28 07:17:33;;;;;;;;;;;;;;;0.32;69.44;100652.72;8342712;28;20059;-71
2022/02/28 07:21:36;;;;;;;2.93;2.23;;;;;;;0.46;68.75;100654.38;8347173;28;19924;-71
2022/02/28 07:25:37;;;;;;;4.82;2.50;;;;;;;0.63;68.86;100657.00;8345758;28;20055;-73
2022/02/28 07:29:39;;;;;;;5.70;2.33;;;;;;;0.80;67.87;100652.00;8344477;28;20052;-71
2022/02/28 07:33:40;;;;;;;2.80;2.50;;;;;;;1.02;67.52;100661.72;8344376;28;20136;-71
2022/02/28 07:37:42;;;;;;;3.60;2.70;;;;;;;1.27;66.68;100665.59;8361135;28;20067;-71
2022/02/28 07:41:45;;;;;;;2.50;2.30;;;;;;;1.60;66.04;100664.78;8359169;28;20702;-73
2022/02/28 07:45:47;;;;;;;5.17;2.27;;;;;;;2.07;64.55;100669.78;8331184;28;20087;-74
2022/02/28 07:49:48;;;;;;;4.97;2.30;;;;;;;2.53;63.21;100673.72;8347647;28;20048;-74
2022/02/28 07:53:50;;;;;;;4.00;2.50;;;;;;;2.88;61.54;100673.72;8348540;28;20053;-73
2022/02/28 07:57:51;;;;;;;4.93;2.70;;;;;;;3.21;60.35;100681.19;8359370;28;20056;-73
2022/02/28 08:01:55;;;;;;;6.63;2.70;;;;;;;3.54;59.50;100681.81;8353941;28;20049;-74
2022/02/28 08:05:57;;;;;;;6.30;2.57;;;;;;;3.84;58.39;100678.03;8357932;28;20052;-70
2022/02/28 08:09:58;;;;;;;3.67;2.03;;;;;;;4.11;57.43;100668.03;8358740;28;21010;-71
2022/02/28 08:14:00;;;;;;;3.70;2.40;;;;;;;4.45;56.71;100669.44;8358756;28;20139;-71
2022/02/28 08:18:01;;;;;;;3.77;2.37;;;;;;;4.73;55.97;100672.31;8353319;28;20131;-71
2022/02/28 08:22:04;;;;;;;3.37;2.27;;;;;;;5.06;53.98;100666.72;8355711;28;20044;-71
2022/02/28 08:26:05;;;;;;;;;;;;;;;5.43;53.32;100666.38;8355999;28;20056;-71
2022/02/28 08:30:07;;;;;;;2.93;2.30;;;;;;;5.72;52.40;100658.00;8352241;28;20051;-70
2022/02/28 08:34:09;;;;;;;3.80;2.15;;;;;;;5.94;52.21;100656.22;8338355;28;20140;-72
2022/02/28 08:38:13;;;;;;;5.03;2.90;;;;;;;6.13;51.10;100653.44;8346553;28;20086;-72
2022/02/28 08:42:14;;;;;;;9.43;2.67;;;;;;;6.21;50.84;100651.09;8341926;28;20041;-71
2022/02/28 08:46:16;;;;;;;3.67;2.17;;;;;;;6.57;49.97;100649.72;8343542;28;20140;-71
2022/02/28 08:50:17;;;;;;;3.15;2.58;;;;;;;6.83;48.66;100652.25;8341247;28;20065;-74
2022/02/28 08:54:19;;;;;;;4.20;2.87;;;;;;;6.74;48.33;100658.00;8342642;28;20464;-71
2022/02/28 08:58:23;;;;;;;3.20;2.60;;;;;;;6.81;48.05;100661.63;8338686;28;20056;-71
2022/02/28 09:02:25;;;;;;;2.70;2.40;;;;;;;6.86;47.91;100652.34;8339036;28;20145;-72
2022/02/28 09:06:26;;;;;;;5.93;2.53;;;;;;;6.92;47.45;100644.78;8348091;28;20053;-73
2022/02/28 09:10:28;;;;;;;3.97;2.43;;;;;;;7.15;47.90;100646.31;8343975;28;20639;-72
2022/02/28 09:14:29;;;;;;;5.03;2.80;;;;;;;7.31;46.68;100647.66;8343148;28;20168;-75
2022/02/28 09:18:31;;;;;;;3.53;2.67;;;;;;;7.47;46.70;100641.22;8340544;28;20373;-71
2022/02/28 09:22:34;;;;;;;4.00;3.00;;;;;;;7.56;46.05;100641.50;8332863;28;20465;-73
2022/02/28 09:26:36;;;;;;;4.67;2.73;;;;;;;7.63;46.15;100640.81;8344139;28;20057;-73
2022/02/28 09:30:42;;;;;;;5.28;2.60;;;;;;;7.79;45.81;100635.22;8340492;28;20067;-72
2022/02/28 09:34:44;;;;;;;3.38;2.40;;;;;;;8.04;45.95;100635.84;8344807;28;20060;-72
2022/02/28 09:38:49;;;;;;;3.22;2.65;;;;;;;8.12;44.34;100635.22;8347723;28;20052;-73
2022/02/28 09:43:08;;;;;;;3.42;2.08;;;;;;;8.25;44.96;100633.81;8337993;28;20055;-73
2022/02/28 09:47:11;;;;;;;2.77;2.07;;;;;;;8.38;44.01;100643.66;8358477;28;20061;-73
2022/02/28 09:51:13;;;;;;;3.28;2.08;;;;;;;8.46;43.39;100636.09;8364738;28;20301;-72
2022/02/28 09:55:15;;;;;;;2.90;2.20;;;;;;;8.60;43.13;100644.19;8363439;28;20052;-73
2022/02/28 09:59:19;;;;;;;3.55;2.17;;;;;;;8.85;42.53;100641.34;8330026;28;20049;-72
2022/02/28 10:03:35;;;;;;;2.58;2.08;;;;;;;9.13;42.08;100650.56;8352193;28;20160;-73
2022/02/28 10:08:06;;;;;;;3.35;2.40;;;;;;;9.22;42.21;100657.69;8353794;28;20048;-71
2022/02/28 10:12:08;;;;;;;3.92;2.30;;;;;;;9.28;41.72;100665.56;8360065;28;20060;-74
2022/02/28 10:16:10;;;;;;;2.47;2.08;;;;;;;9.26;41.26;100664.66;8359131;28;20475;-73
2022/02/28 10:20:18;;;;;;;2.40;1.83;;;;;;;9.40;41.81;100668.44;8360522;28;20083;-73
2022/02/28 10:24:29;;;;;;;3.47;2.00;;;;;;;9.60;40.48;100663.66;8341668;28;20055;-74
2022/02/28 10:28:31;;;;;;;2.53;1.88;;;;;;;9.66;40.74;100663.75;8345544;28;20679;-73
2022/02/28 10:32:50;;;;;;;2.35;1.90;;;;;;;9.87;40.05;100663.28;8335842;28;20071;-74
2022/02/28 10:36:57;;;;;;;3.47;2.13;;;;;;;9.86;39.33;100661.56;8340302;28;20201;-74
2022/02/28 10:41:00;;;;;;;2.63;2.10;;;;;;;9.90;39.68;100671.16;8359650;28;20171;-74
2022/02/28 10:45:24;;;;;;;3.88;2.40;;;;;;;10.15;39.57;100681.13;8350950;28;20057;-71
2022/02/28 10:49:31;;;;;;;2.08;1.85;;;;;;;10.28;39.75;100672.75;8352477;28;20049;-73
2022/02/28 10:53:33;;;;;;;2.42;1.95;;;;;;;10.24;39.66;100673.56;8353987;28;20063;-73
2022/02/28 10:57:35;;;;;;;4.10;2.47;;;;;;;10.42;39.25;100673.00;8349604;28;20148;-74
2022/02/28 11:01:39;;;;;;;3.47;2.03;;;;;;;10.54;39.26;100680.09;8352122;28;20061;-74
2022/02/28 11:05:59;;;;;;;4.15;2.53;;;;;;;10.66;39.18;100674.25;8335360;28;20085;-74
2022/02/28 11:10:04;;;;;;;5.60;2.65;;;;;;;10.79;38.21;100669.28;8352549;28;20589;-74
2022/02/28 11:14:06;;;;;;;2.33;1.92;;;;;;;10.95;37.87;100666.88;8334204;28;20123;-74
2022/02/28 11:18:16;;;;;;;3.08;2.28;;;;;;;11.09;38.61;100655.81;8353792;28;20475;-74
2022/02/28 11:22:20;;;;;;;4.55;2.33;;;;;;;11.32;38.63;100647.47;8352724;28;20049;-73
2022/02/28 11:26:22;;;;;;;4.25;1.85;;;;;;;11.48;37.59;100644.19;8364787;28;20430;-73
2022/02/28 11:30:25;;;;;;;2.70;2.50;;;;;;;11.48;37.52;100639.84;8320138;28;20068;-74
2022/02/28 11:34:26;;;;;;;3.53;1.90;;;;;;;11.39;37.33;100623.28;8356010;28;20049;-72
2022/02/28 11:38:28;;;;;;;4.53;2.10;;;;;;;11.38;37.11;100618.94;8363951;28;20044;-73
2022/02/28 11:43:07;;;;;;;4.30;2.35;;;;;;;11.45;37.54;100616.41;8345929;28;20068;-74
2022/02/28 11:47:13;;;;;;;2.85;1.63;;;;;;;11.70;37.22;100617.56;8337159;28;20064;-73
2022/02/28 11:51:32;;;;;;;5.07;1.95;;;;;;;11.80;36.15;100611.63;8351057;28;20040;-73
2022/02/28 11:55:34;;;;;;;2.03;1.80;;;;;;;11.77;36.20;100608.09;8354751;28;20139;-73
2022/02/28 11:59:38;;;;;;;6.65;1.83;;;;;;;11.90;36.31;100612.59;8333958;28;20129;-73
2022/02/28 12:03:51;;;;;;;3.47;1.63;;;;;;;11.93;35.81;100606.56;8334733;28;20132;-73
2022/02/28 12:07:52;;;;;;;1.98;1.70;;;;;;;11.95;35.42;100589.22;8354368;28;20060;-73
2022/02/28 12:12:13;;;;;;;2.53;2.00;;;;;;;12.03;35.71;100590.19;8351916;28;20073;-73
2022/02/28 12:21:08;;;;;;;2.78;1.80;;;;;;;12.25;34.40;100586.88;8357233;28;20048;-73
2022/02/28 12:25:11;;;;;;;5.03;1.88;;;;;;;12.28;34.62;100580.84;8361477;28;20069;-73
2022/02/28 12:29:15;;;;;;;2.05;1.50;;;;;;;12.27;34.19;100574.75;8353063;28;20148;-73
2022/02/28 12:33:19;;;;;;;2.00;1.67;;;;;;;12.39;35.20;100569.66;8361029;28;20052;-73
2022/02/28 12:37:24;;;;;;;3.45;1.48;;;;;;;12.49;35.01;100572.28;8359389;28;20519;-74
2022/02/28 12:41:30;;;;;;;1.55;1.45;;;;;;;12.47;35.17;100555.78;8365926;28;20839;-73
2022/02/28 12:45:31;;;;;;;1.90;1.45;;;;;;;12.57;34.39;100552.41;8361233;28;20076;-74
2022/02/28 12:49:35;;;;;;;3.45;1.77;;;;;;;12.59;34.18;100551.53;8358367;28;20053;-74
2022/02/28 12:53:39;;;;;;;2.50;1.52;;;;;;;12.59;34.41;100551.53;8344344;28;20044;-73
2022/02/28 12:57:41;;;;;;;3.30;1.50;;;;;;;12.66;34.35;100548.09;8351004;28;20777;-74
2022/02/28 13:01:43;;;;;;;4.63;1.48;;;;;;;12.82;34.71;100546.44;8369571;28;20810;-74
2022/02/28 13:05:55;;;;;;;1.58;1.48;;;;;;;12.85;33.54;100537.75;8366990;28;20095;-74
2022/02/28 13:10:00;;;;;;;1.92;1.30;;;;;;;12.84;33.21;100536.88;8360986;28;20131;-74
2022/02/28 13:14:05;;;;;;;3.85;1.50;;;;;;;12.88;33.59;100533.44;8362936;28;20076;-74
2022/02/28 13:18:07;;;;;;;2.00;1.38;;;;;;;12.93;34.01;100533.47;8358429;28;20060;-73
2022/02/28 13:22:09;;;;;;;11.48;6.13;;;;;;;12.98;33.34;100535.22;8362099;28;20151;-74
2022/02/28 13:26:11;;;;;;;2.03;1.55;;;;;;;13.05;31.92;100536.09;8357436;28;20052;-73
2022/02/28 13:30:12;;;;;;;1.73;1.47;;;;;;;13.00;31.24;100536.09;8359096;28;20059;-75
2022/02/28 13:34:16;;;;;;;2.72;1.25;;;;;;;12.99;30.51;100542.19;8370168;28;20087;-72
2022/02/28 13:38:19;;;;;;;3.03;1.30;;;;;;;12.97;31.77;100530.00;8365599;28;20052;-74
2022/02/28 13:42:25;;;;;;;1.40;1.30;;;;;;;13.02;31.60;100533.50;8365779;28;20128;-74
2022/02/28 13:46:27;;;;;;;1.55;1.35;;;;;;;13.09;32.68;100530.03;8356205;28;20080;-74
2022/02/28 13:50:30;;;;;;;1.88;1.40;;;;;;;13.13;32.44;100529.19;8347007;28;20496;-74
2022/02/28 13:54:33;;;;;;;4.32;1.60;;;;;;;13.09;32.18;100530.03;8348633;28;20461;-74
2022/02/28 13:58:36;;;;;;;1.80;1.50;;;;;;;13.06;32.23;100523.94;8370612;28;20087;-74
2022/02/28 14:03:07;;;;;;;1.48;1.38;;;;;;;12.93;32.70;100526.53;8367022;28;20049;-74
2022/02/28 14:07:09;;;;;;;1.42;1.20;;;;;;;12.96;32.75;100517.84;8353926;28;20091;-73
2022/02/28 14:11:12;;;;;;;1.98;1.17;;;;;;;13.04;32.57;100526.53;8371815;28;20056;-73
2022/02/28 14:15:14;;;;;;;1.55;1.38;;;;;;;13.02;31.38;100528.28;8361575;28;20457;-72
2022/02/28 14:19:16;;;;;;;2.53;1.53;;;;;;;13.06;32.31;100526.53;8370080;28;20136;-73
2022/02/28 14:23:18;;;;;;;1.88;1.13;;;;;;;12.96;31.76;100523.91;8373143;28;20058;-73
2022/02/28 14:27:28;;;;;;;1.05;1.00;;;;;;;12.88;31.95;100522.13;8372063;28;20049;-74
2022/02/28 14:31:30;;;;;;;4.30;1.65;;;;;;;12.80;31.93;100510.81;8359012;28;20437;-73
2022/02/28 14:35:32;;;;;;;2.23;1.73;;;;;;;12.77;31.00;100509.06;8371899;28;20087;-73
2022/02/28 14:39:33;;;;;;;1.27;1.10;;;;;;;12.65;31.28;100493.38;8371497;28;20072;-74
2022/02/28 14:43:36;;;;;;;1.57;1.37;;;;;;;12.61;30.82;100500.31;8372325;28;20763;-74
2022/02/28 14:47:38;;;;;;;1.45;1.25;;;;;;;12.53;30.60;100496.75;8351744;28;20061;-74
2022/02/28 14:51:40;;;;;;;1.33;1.20;;;;;;;12.50;30.77;100496.75;8373381;28;20049;-74
2022/02/28 14:55:42;;;;;;;0.82;0.80;;;;;;;12.40;29.46;100485.44;8369676;28;20104;-74
2022/02/28 14:59:44;;;;;;;1.30;1.05;;;;;;;12.36;29.70;100470.63;8370566;28;20088;-74
2022/02/28 15:03:45;;;;;;;1.23;0.93;;;;;;;12.36;29.85;100474.97;8348927;28;20140;-74
2022/02/28 15:07:47;;;;;;;1.88;1.35;;;;;;;12.33;29.83;100469.75;8351078;28;20048;-74
2022/02/28 15:11:49;;;;;;;3.30;1.15;;;;;;;12.30;29.75;100478.41;8370685;28;20083;-74
2022/02/28 15:15:50;;;;;;;1.15;0.88;;;;;;;12.20;29.46;100473.13;8363816;28;20057;-74
2022/02/28 15:19:52;;;;;;;1.15;1.05;;;;;;;12.16;30.47;100469.63;8351366;28;20114;-74
2022/02/28 15:23:54;;;;;;;1.00;0.80;;;;;;;12.21;30.07;100460.16;8365279;28;20056;-74
2022/02/28 15:27:55;;;;;;;2.40;0.95;;;;;;;12.19;29.43;100464.44;8370276;28;20062;-74
2022/02/28 15:31:57;;;;;;;3.63;0.97;;;;;;;12.19;29.26;100455.75;8362516;28;20064;-74
2022/02/28 15:35:58;;;;;;;1.52;0.82;;;;;;;12.17;29.62;100457.50;8372774;28;20060;-74
2022/02/28 15:39:59;;;;;;;1.15;0.85;;;;;;;12.22;30.09;100446.25;8368372;28;20483;-74
2022/02/28 15:44:01;;;;;;;1.23;0.80;;;;;;;12.23;29.00;100445.41;8370466;28;20792;-74
2022/02/28 15:48:03;;;;;;;1.10;0.57;;;;;;;12.25;27.99;100433.25;8361043;28;20118;-74
2022/02/28 15:52:06;;;;;;;1.77;0.90;;;;;;;12.29;27.40;100421.97;8369399;28;20063;-74
2022/02/28 15:56:08;;;;;;;0.93;0.60;;;;;;;12.31;26.86;100428.06;8366457;28;20056;-74
2022/02/28 16:00:11;;;;;;;1.77;1.10;;;;;;;12.81;26.54;100423.94;8341642;28;20175;-74
2022/02/28 16:04:12;;;;;;;2.00;1.73;;;;;;;14.43;24.81;100420.47;8368452;28;20091;-74
2022/02/28 16:08:14;;;;;;;2.83;2.35;;;;;;;14.55;24.77;100411.75;8367507;28;20175;-74
2022/02/28 16:12:15;;;;;;;2.33;2.10;;;;;;;15.13;24.44;100423.63;8348986;28;20504;-75
2022/02/28 16:16:17;;;;;;;2.93;2.40;;;;;;;16.91;22.58;100419.28;8361340;28;20088;-74
2022/02/28 16:20:18;;;;;;;2.77;1.80;;;;;;;14.74;25.01;100423.84;8351586;28;20135;-74
2022/02/28 16:24:20;;;;;;;1.83;1.43;;;;;;;13.29;26.22;100431.03;8368155;28;20078;-74
2022/02/28 16:28:22;;;;;;;1.63;1.30;;;;;;;12.35;28.64;100424.59;8367937;28;20132;-74
2022/02/28 16:32:24;;;;;;;1.37;1.27;;;;;;;11.69;29.48;100425.03;8349996;28;20068;-74
2022/02/28 16:36:27;;;;;;;1.65;1.55;;;;;;;11.18;30.79;100423.72;8361456;28;20513;-74
2022/02/28 16:40:28;;;;;;;1.73;1.30;;;;;;;10.80;31.10;100432.00;8350576;28;20060;-74
2022/02/28 16:44:30;;;;;;;1.92;1.30;;;;;;;10.50;31.76;100435.09;8368341;28;20726;-74
2022/02/28 16:48:32;;;;;;;0.93;0.83;;;;;;;10.24;31.45;100439.06;8353374;28;20060;-75
2022/02/28 16:52:34;;;;;;;4.80;1.30;;;;;;;10.05;32.18;100445.66;8363513;28;20136;-74
2022/02/28 16:56:36;;;;;;;1.88;1.33;;;;;;;9.86;32.28;100454.91;8360027;28;20171;-74
2022/02/28 17:00:37;;;;;;;1.58;1.33;;;;;;;9.66;33.21;100443.34;8364124;28;20084;-74
2022/02/28 17:04:39;;;;;;;3.78;1.38;;;;;;;9.48;33.18;100453.41;8355973;28;20122;-75
2022/02/28 17:08:41;;;;;;;1.20;1.10;;;;;;;9.31;33.27;100458.28;8357954;28;20720;-74
2022/02/28 17:12:45;;;;;;;0.88;0.88;;;;;;;9.13;33.54;100466.59;8337698;28;20080;-75
2022/02/28 17:16:47;;;;;;;1.30;1.05;;;;;;;8.97;34.16;100465.44;8351930;28;20064;-73
2022/02/28 17:20:48;;;;;;;2.17;1.10;;;;;;;8.81;35.33;100476.38;8350537;28;20064;-73
2022/02/28 17:24:50;;;;;;;1.60;1.10;;;;;;;8.60;35.92;100478.50;8347800;28;20057;-73
2022/02/28 17:28:51;;;;;;;2.45;1.20;;;;;;;8.40;37.46;100478.94;8351101;28;20616;-73
2022/02/28 17:32:54;;;;;;;2.33;1.73;;;;;;;8.21;38.52;100474.16;8347920;28;20057;-73
2022/02/28 17:36:55;;;;;;;;;;;;;;;7.99;38.64;100475.41;8332838;28;20073;-73
2022/02/28 17:40:57;;;;;;;2.58;1.45;;;;;;;7.76;38.65;100489.50;8358109;28;19928;-72
2022/02/28 17:44:58;;;;;;;3.70;1.43;;;;;;;7.50;38.26;100492.28;8366780;28;20424;-73
2022/02/28 17:49:01;;;;;;;1.30;1.20;;;;;;;7.37;39.22;100498.00;8364969;28;20821;-73
2022/02/28 17:53:02;;;;;;;;;;;;;;;7.24;38.31;100494.22;8344953;28;20079;-72
2022/02/28 17:57:05;;;;;;;2.93;1.60;;;;;;;7.23;37.26;100486.41;8373155;28;19924;-73
2022/02/28 18:01:06;;;;;;;1.60;1.00;;;;;;;7.19;37.87;100493.22;8362913;28;20061;-73
2022/02/28 18:05:11;;;;;;;1.67;1.57;;;;;;;7.15;37.23;100498.25;8365531;28;20440;-73
2022/02/28 18:09:12;;;;;;;2.55;1.40;;;;;;;7.13;37.87;100497.31;8369513;28;20703;-73
2022/02/28 18:13:14;;;;;;;2.20;1.63;;;;;;;7.06;38.49;100501.47;8370582;28;20159;-73
2022/02/28 18:17:15;;;;;;;4.27;2.27;;;;;;;6.98;38.22;100505.53;8351282;28;20409;-73
2022/02/28 18:21:19;;;;;;;3.92;2.83;;;;;;;6.83;39.67;100518.03;8357905;28;20053;-73
2022/02/28 18:25:20;;;;;;;5.37;3.90;;;;;;;6.69;39.43;100521.91;8369179;28;20056;-73
2022/02/28 18:29:22;;;;;;;4.23;3.13;;;;;;;6.60;39.07;100523.38;8365970;28;20131;-73
2022/02/28 18:33:23;;;;;;;5.40;3.10;;;;;;;6.50;39.74;100525.66;8353674;28;20040;-73
2022/02/28 18:37:25;;;;;;;4.20;3.03;;;;;;;6.43;40.20;100539.16;8349102;28;20057;-73
2022/02/28 18:41:26;;;;;;;3.63;3.20;;;;;;;6.28;39.94;100537.88;8331188;28;20085;-73
2022/02/28 18:45:28;;;;;;;3.43;3.13;;;;;;;6.01;41.32;100537.00;8339207;28;21213;-73
2022/02/28 18:49:30;;;;;;;4.87;3.53;;;;;;;5.83;43.08;100546.69;8349126;28;20309;-73
2022/02/28 18:53:31;;;;;;;5.20;4.53;;;;;;;5.70;42.95;100541.09;8333457;28;20053;-73
2022/02/28 18:57:33;;;;;;;5.67;4.87;;;;;;;5.61;42.70;100537.34;8348655;28;20049;-73
2022/02/28 19:01:34;;;;;;;5.57;4.35;;;;;;;5.42;43.81;100538.44;8343834;28;20064;-73